Time;durP1;ratioP1;P1;durP2;ratioP2;P2;SDS_P1;SDS_P2;PMS_P1;PMS_P2;Temp;Humidity;BMP_temperature;BMP_pressure;BME280_temperature;BME280_humidity;BME280_pressure;Samples;Min_cycle;Max_cycle;Signal;HPM_P1;HPM_P2
2022/12/04 00:01:53;;;;;;;17.43;10.53;;;2.10;99.90;;;;;;5009112;28;20447;-75
2022/12/04 00:04:19;;;;;;;14.27;9.23;;;2.10;99.90;;;;;;5008797;28;20187;-75
2022/12/04 00:06:44;;;;;;;17.60;9.87;;;2.10;99.90;;;;;;5008688;28;20192;-76
2022/12/04 00:09:10;;;;;;;17.87;9.20;;;2.20;99.90;;;;;;5008784;28;20285;-76
2022/12/04 00:11:37;;;;;;;20.07;10.33;;;2.20;99.90;;;;;;5010139;28;20689;-75
2022/12/04 00:14:02;;;;;;;19.77;10.93;;;2.20;99.90;;;;;;5008819;28;20241;-75
2022/12/04 00:16:28;;;;;;;21.80;11.93;;;2.10;99.90;;;;;;4992580;28;20187;-75
2022/12/04 00:18:54;;;;;;;21.42;11.50;;;2.10;99.90;;;;;;5009524;28;20282;-75
2022/12/04 00:21:21;;;;;;;20.27;11.60;;;2.20;99.90;;;;;;5010091;28;20302;-75
2022/12/04 00:23:47;;;;;;;19.80;12.50;;;2.20;99.90;;;;;;5010086;28;21098;-75
2022/12/04 00:26:19;;;;;;;23.93;11.57;;;2.20;99.90;;;;;;5009976;28;20194;-75
2022/12/04 00:28:45;;;;;;;20.27;11.10;;;2.20;99.90;;;;;;5008395;28;20524;-76
2022/12/04 00:31:20;;;;;;;20.05;11.50;;;2.20;99.90;;;;;;5009979;28;20262;-75
2022/12/04 00:33:46;;;;;;;19.83;11.15;;;2.20;99.90;;;;;;5010662;28;20605;-75
2022/12/04 00:36:14;;;;;;;19.83;10.77;;;2.10;99.90;;;;;;5010266;28;20179;-75
2022/12/04 00:38:41;;;;;;;19.02;11.20;;;2.20;99.90;;;;;;5010501;28;20983;-75
2022/12/04 00:41:09;;;;;;;21.17;11.80;;;2.20;99.90;;;;;;5010406;28;20192;-74
2022/12/04 00:43:35;;;;;;;22.60;12.57;;;2.20;99.90;;;;;;5009312;28;20188;-76
2022/12/04 00:46:00;;;;;;;24.03;14.17;;;2.20;99.90;;;;;;5009084;28;20201;-75
2022/12/04 00:48:26;;;;;;;25.40;13.13;;;2.20;99.90;;;;;;5010425;28;20297;-75
2022/12/04 00:50:53;;;;;;;24.37;13.93;;;2.20;99.90;;;;;;5008696;28;20183;-77
2022/12/04 00:53:19;;;;;;;22.17;12.80;;;2.20;99.90;;;;;;4976103;28;20303;-77
2022/12/04 00:55:44;;;;;;;33.92;16.67;;;2.40;99.90;;;;;;5008591;28;20429;-77
2022/12/04 00:58:11;;;;;;;31.77;14.03;;;2.10;99.90;;;;;;4991956;28;20198;-77
2022/12/04 01:00:39;;;;;;;25.13;14.43;;;2.10;99.90;;;;;;5009590;28;20188;-78
2022/12/04 01:03:06;;;;;;;30.48;14.38;;;2.10;99.90;;;;;;4975676;28;20211;-76
2022/12/04 01:05:31;;;;;;;30.77;14.23;;;2.20;99.90;;;;;;5009178;28;20699;-77
2022/12/04 01:07:57;;;;;;;24.03;12.73;;;2.10;99.90;;;;;;5008089;28;20215;-76
2022/12/04 01:10:23;;;;;;;27.23;14.20;;;2.20;99.90;;;;;;5009430;28;20190;-76
2022/12/04 01:12:49;;;;;;;25.10;13.03;;;2.20;99.90;;;;;;5007925;28;20243;-76
2022/12/04 01:15:16;;;;;;;18.15;10.60;;;2.20;99.90;;;;;;5009336;28;20217;-76
2022/12/04 01:17:41;;;;;;;26.50;12.80;;;2.20;99.90;;;;;;5007933;28;20208;-77
2022/12/04 01:20:07;;;;;;;25.10;12.40;;;2.20;99.90;;;;;;5010710;28;20642;-78
2022/12/04 01:22:33;;;;;;;31.53;13.97;;;2.20;99.90;;;;;;5008288;28;20243;-78
2022/12/04 01:24:59;;;;;;;21.47;11.90;;;2.20;99.90;;;;;;5009447;28;20423;-77
2022/12/04 01:27:25;;;;;;;23.03;12.33;;;2.30;99.90;;;;;;5008033;28;20288;-75
2022/12/04 01:29:50;;;;;;;25.35;12.98;;;2.30;99.90;;;;;;4990626;28;20192;-76
2022/12/04 01:32:16;;;;;;;20.17;11.17;;;2.30;99.90;;;;;;5007509;28;20229;-76
2022/12/04 01:34:41;;;;;;;22.73;12.00;;;2.30;99.90;;;;;;5007649;28;20191;-76
2022/12/04 01:37:07;;;;;;;20.53;11.80;;;2.30;99.90;;;;;;5008139;28;20265;-76
2022/12/04 01:39:35;;;;;;;18.37;9.90;;;2.30;99.90;;;;;;5008023;28;20178;-77
2022/12/04 01:42:01;;;;;;;18.90;10.85;;;2.30;99.90;;;;;;5009260;28;20451;-77
2022/12/04 01:44:30;;;;;;;20.17;11.30;;;2.30;99.90;;;;;;5007658;28;20194;-77
2022/12/04 01:46:58;;;;;;;24.42;11.57;;;2.20;99.90;;;;;;5007794;28;20325;-77
2022/12/04 01:49:36;;;;;;;23.77;10.70;;;2.20;99.90;;;;;;4991567;28;20218;-78
2022/12/04 01:52:18;;;;;;;19.48;10.60;;;2.20;99.90;;;;;;4991644;28;20208;-76
2022/12/04 01:54:48;;;;;;;20.55;10.85;;;2.20;99.90;;;;;;5007667;28;20216;-77
2022/12/04 01:57:17;;;;;;;19.85;9.95;;;2.20;99.90;;;;;;5008983;28;20270;-78
2022/12/04 02:00:03;;;;;;;20.30;10.55;;;2.20;99.90;;;;;;5009257;28;20212;-76
2022/12/04 02:02:38;;;;;;;17.38;9.48;;;2.20;99.90;;;;;;5007717;28;20776;-77
2022/12/04 02:05:08;;;;;;;15.85;8.45;;;2.10;99.90;;;;;;5009200;28;20630;-77
2022/12/04 02:07:35;;;;;;;15.85;8.80;;;2.10;99.90;;;;;;5009480;28;20312;-76
2022/12/04 02:10:05;;;;;;;18.10;9.85;;;2.10;99.90;;;;;;5009280;28;20593;-75
2022/12/04 02:13:06;;;;;;;18.40;10.35;;;2.10;99.90;;;;;;4992285;28;20207;-77
2022/12/04 02:15:53;;;;;;;15.05;8.70;;;2.10;99.90;;;;;;5007730;28;20186;-77
2022/12/04 02:18:53;;;;;;;15.65;8.82;;;2.10;99.90;;;;;;5008217;28;20580;-77
2022/12/04 02:21:25;;;;;;;18.27;10.18;;;2.20;99.90;;;;;;5009120;28;20206;-78
2022/12/04 02:24:01;;;;;;;18.20;9.07;;;2.20;99.90;;;;;;5008182;28;20694;-77
2022/12/04 02:27:07;;;;;;;20.45;11.35;;;2.10;99.90;;;;;;5009711;28;20958;-80
2022/12/04 02:29:57;;;;;;;15.13;8.63;;;2.10;99.90;;;;;;5009481;28;20179;-77
2022/12/04 02:32:31;;;;;;;14.63;8.95;;;2.10;99.90;;;;;;5007852;28;20600;-77
2022/12/04 02:34:59;;;;;;;14.93;8.73;;;2.10;99.90;;;;;;5007949;28;20574;-76
2022/12/04 02:37:30;;;;;;;17.02;9.75;;;2.10;99.90;;;;;;5009303;28;20186;-79
2022/12/04 02:40:15;;;;;;;20.40;10.15;;;2.00;99.90;;;;;;5009123;28;20197;-77
2022/12/04 02:42:47;;;;;;;18.23;9.63;;;2.10;99.90;;;;;;5011705;28;20585;-77
2022/12/04 02:45:37;;;;;;;17.70;9.57;;;2.20;99.90;;;;;;5011203;28;20213;-78
2022/12/04 02:48:06;;;;;;;16.63;8.98;;;2.10;99.90;;;;;;5012550;28;20230;-78
2022/12/04 02:50:36;;;;;;;17.30;8.95;;;2.20;99.90;;;;;;5011197;28;20189;-77
2022/12/04 02:53:09;;;;;;;19.52;10.05;;;2.20;99.90;;;;;;5012274;28;20206;-77
2022/12/04 02:55:41;;;;;;;18.55;9.48;;;2.20;99.90;;;;;;5010844;28;20656;-76
2022/12/04 02:58:15;;;;;;;18.83;10.60;;;2.20;99.90;;;;;;5010619;28;20970;-76
2022/12/04 03:00:44;;;;;;;25.17;12.10;;;2.20;99.90;;;;;;5010528;28;20677;-77
2022/12/04 03:03:16;;;;;;;22.02;12.13;;;2.20;99.90;;;;;;5010380;28;20223;-77
2022/12/04 03:05:57;;;;;;;28.23;13.05;;;2.20;99.90;;;;;;5010242;28;20688;-78
2022/12/04 03:08:28;;;;;;;21.40;11.98;;;2.20;99.90;;;;;;4995344;28;20696;-78
2022/12/04 03:10:59;;;;;;;22.20;12.85;;;2.10;99.90;;;;;;5011365;28;20178;-77
2022/12/04 03:13:46;;;;;;;23.48;11.95;;;2.10;99.90;;;;;;5010072;28;20187;-78
2022/12/04 03:16:23;;;;;;;23.15;12.68;;;2.10;99.90;;;;;;5011204;28;20185;-79
2022/12/04 03:19:01;;;;;;;22.45;11.90;;;2.10;99.90;;;;;;5011409;28;20678;-78
2022/12/04 03:21:37;;;;;;;20.77;11.48;;;2.10;99.90;;;;;;5011148;28;20753;-78
2022/12/04 03:24:18;;;;;;;26.60;11.63;;;2.10;99.90;;;;;;5011921;28;20205;-78
2022/12/04 03:26:55;;;;;;;21.50;11.20;;;2.10;99.90;;;;;;5011416;28;20224;-78
2022/12/04 03:29:48;;;;;;;24.38;13.45;;;2.10;99.90;;;;;;5012568;28;20288;-77
2022/12/04 03:32:32;;;;;;;21.67;11.52;;;2.10;99.90;;;;;;5011137;28;20269;-76
2022/12/04 03:35:04;;;;;;;20.98;10.90;;;2.20;99.90;;;;;;5011176;28;20183;-76
2022/12/04 03:37:41;;;;;;;17.77;10.38;;;2.10;99.90;;;;;;5011023;28;20180;-76
2022/12/04 03:40:22;;;;;;;17.67;10.70;;;2.10;99.90;;;;;;5011143;28;20211;-76
2022/12/04 03:43:28;;;;;;;19.85;10.55;;;2.00;99.90;;;;;;5009404;28;20226;-76
2022/12/04 03:46:28;;;;;;;21.33;10.52;;;2.00;99.90;;;;;;4999388;28;20699;-77
2022/12/04 03:49:16;;;;;;;18.20;10.00;;;2.00;99.90;;;;;;4976830;28;20230;-77
2022/12/04 03:51:58;;;;;;;19.50;10.20;;;2.10;99.90;;;;;;5009844;28;20202;-76
2022/12/04 03:54:32;;;;;;;22.42;11.00;;;2.10;99.90;;;;;;5009816;28;20174;-76
2022/12/04 03:57:00;;;;;;;21.48;11.13;;;2.10;99.90;;;;;;5011001;28;20191;-76
2022/12/04 04:00:04;;;;;;;20.88;10.85;;;2.10;99.90;;;;;;5009423;28;20186;-76
2022/12/04 04:02:35;;;;;;;18.70;9.97;;;2.10;99.90;;;;;;4968624;28;20837;-76
2022/12/04 04:05:04;;;;;;;19.92;11.07;;;2.10;99.90;;;;;;4998561;28;20427;-76
2022/12/04 04:07:37;;;;;;;20.70;11.40;;;2.10;99.90;;;;;;5010255;28;20229;-76
2022/12/04 04:10:17;;;;;;;27.58;10.52;;;2.10;99.90;;;;;;5010386;28;20190;-77
2022/12/04 04:24:13;;;;;;;20.52;10.70;;;2.10;99.90;;;;;;4994140;28;20206;-77
2022/12/04 04:24:13;;;;;;;18.90;9.82;;;2.30;99.90;;;;;;5010475;28;20234;-76
2022/12/04 04:26:44;;;;;;;16.33;9.68;;;2.20;99.90;;;;;;5009979;28;20661;-76
2022/12/04 04:29:10;;;;;;;20.73;11.20;;;2.20;99.90;;;;;;5010022;28;20226;-76
2022/12/04 04:31:53;;;;;;;19.03;10.17;;;2.20;99.90;;;;;;5009982;28;20202;-75
2022/12/04 04:34:27;;;;;;;16.77;10.15;;;2.20;99.90;;;;;;5010432;28;20460;-76
2022/12/04 04:37:03;;;;;;;19.45;10.43;;;2.20;99.90;;;;;;5010377;28;20261;-77
2022/12/04 04:39:30;;;;;;;19.55;10.60;;;2.30;99.90;;;;;;5009975;28;20190;-77
2022/12/04 04:42:08;;;;;;;15.98;8.88;;;2.30;99.90;;;;;;5009832;28;20210;-77
2022/12/04 04:44:46;;;;;;;18.23;10.10;;;2.30;99.90;;;;;;5009828;28;20211;-76
2022/12/04 04:47:41;;;;;;;16.13;9.67;;;2.30;99.90;;;;;;5009587;28;20207;-76
2022/12/04 04:50:10;;;;;;;15.02;8.75;;;2.30;99.90;;;;;;5009820;28;20460;-76
2022/12/04 04:52:38;;;;;;;17.13;8.60;;;2.20;99.90;;;;;;5008062;28;20231;-78
2022/12/04 04:55:05;;;;;;;16.47;8.80;;;2.20;99.90;;;;;;5008366;28;20248;-77
2022/12/04 04:57:36;;;;;;;15.35;9.23;;;2.20;99.90;;;;;;5008397;28;20911;-76
2022/12/04 05:00:07;;;;;;;13.85;7.88;;;2.10;99.90;;;;;;5008091;28;20246;-78
2022/12/04 05:02:33;;;;;;;12.98;8.50;;;2.10;99.90;;;;;;5008082;28;20210;-78
2022/12/04 05:04:58;;;;;;;14.32;8.50;;;2.00;99.90;;;;;;5007938;28;20298;-77
2022/12/04 05:07:24;;;;;;;13.73;8.30;;;2.00;99.90;;;;;;5009546;28;20274;-78
2022/12/04 05:09:50;;;;;;;10.53;7.20;;;2.00;99.90;;;;;;5008189;28;20179;-77
2022/12/04 05:12:15;;;;;;;15.90;8.40;;;2.00;99.90;;;;;;5007626;28;20244;-76
2022/12/04 05:14:41;;;;;;;14.43;8.60;;;2.00;99.90;;;;;;5009389;28;20202;-76
2022/12/04 05:17:06;;;;;;;13.73;8.27;;;2.00;99.90;;;;;;5008179;28;20183;-76
2022/12/04 05:22:38;;;;;;;15.32;8.00;;;2.00;99.90;;;;;;5009613;28;20263;-77
2022/12/04 05:25:04;;;;;;;13.40;8.75;;;2.00;99.90;;;;;;4993866;28;20200;-77
2022/12/04 05:27:30;;;;;;;14.57;8.68;;;1.90;99.90;;;;;;4993388;28;20187;-79
2022/12/04 05:29:57;;;;;;;14.85;8.75;;;1.90;99.90;;;;;;5008871;28;20184;-77
2022/12/04 05:32:25;;;;;;;15.15;9.70;;;1.90;99.90;;;;;;5009878;28;20208;-76
2022/12/04 05:34:53;;;;;;;16.02;11.02;;;1.90;99.90;;;;;;4993722;28;20653;-74
2022/12/04 05:37:19;;;;;;;15.15;8.98;;;2.00;99.90;;;;;;5034515;28;20185;-73
2022/12/04 05:39:45;;;;;;;14.52;8.20;;;2.00;99.90;;;;;;5034668;28;20205;-71
2022/12/04 05:42:12;;;;;;;17.87;9.77;;;2.00;99.90;;;;;;5034689;28;20210;-74
2022/12/04 05:44:37;;;;;;;14.55;8.75;;;2.00;99.90;;;;;;5032154;28;20409;-76
2022/12/04 05:47:03;;;;;;;14.07;8.60;;;1.90;99.90;;;;;;5010684;28;20679;-75
2022/12/04 05:49:29;;;;;;;17.13;8.60;;;2.00;99.90;;;;;;5009614;28;20210;-75
2022/12/04 05:51:55;;;;;;;11.45;7.13;;;1.90;99.90;;;;;;5007718;28;20202;-74
2022/12/04 05:54:21;;;;;;;12.57;7.40;;;2.00;99.90;;;;;;5009097;28;20183;-74
2022/12/04 05:56:46;;;;;;;13.87;8.30;;;2.00;99.90;;;;;;5008957;28;20185;-74
2022/12/04 05:59:13;;;;;;;14.60;8.20;;;1.90;99.90;;;;;;5008528;28;20191;-74
2022/12/04 06:01:39;;;;;;;14.77;8.02;;;2.00;99.90;;;;;;5007371;28;20210;-73
2022/12/04 06:04:04;;;;;;;15.17;8.87;;;2.00;99.90;;;;;;5008863;28;20196;-73
2022/12/04 06:06:30;;;;;;;14.60;8.33;;;2.00;99.90;;;;;;5008599;28;20204;-74
2022/12/04 06:08:57;;;;;;;16.10;8.70;;;2.10;99.90;;;;;;5008081;28;20305;-75
2022/12/04 06:11:29;;;;;;;16.40;8.38;;;2.10;99.90;;;;;;5007999;28;20203;-76
2022/12/04 06:13:55;;;;;;;12.95;8.50;;;2.10;99.90;;;;;;5007045;28;20544;-75
2022/12/04 06:16:27;;;;;;;14.55;8.60;;;2.20;99.90;;;;;;5009249;28;20190;-75
2022/12/04 06:18:55;;;;;;;12.57;8.18;;;2.20;99.90;;;;;;5013133;28;20293;-76
2022/12/04 06:21:22;;;;;;;16.70;9.90;;;2.10;99.90;;;;;;5011248;28;20679;-75
2022/12/04 06:23:47;;;;;;;13.70;8.25;;;2.20;99.90;;;;;;5011471;28;20215;-75
2022/12/04 06:26:13;;;;;;;15.63;9.17;;;2.20;99.90;;;;;;5012702;28;20266;-75
2022/12/04 06:28:39;;;;;;;15.47;9.93;;;2.10;99.90;;;;;;5012426;28;20288;-76
2022/12/04 06:31:10;;;;;;;17.50;9.30;;;2.10;99.90;;;;;;5012433;28;20257;-75
2022/12/04 06:33:37;;;;;;;17.25;10.05;;;2.10;99.90;;;;;;5012371;28;20412;-76
2022/12/04 06:36:06;;;;;;;16.65;11.60;;;2.10;99.90;;;;;;5012341;28;20187;-76
2022/12/04 06:38:33;;;;;;;31.05;22.38;;;2.10;99.90;;;;;;5011922;28;20197;-75
2022/12/04 06:41:02;;;;;;;17.30;11.07;;;2.00;99.90;;;;;;5012100;28;20641;-76
2022/12/04 06:43:27;;;;;;;24.98;12.85;;;2.10;99.90;;;;;;5011871;28;20705;-76
2022/12/04 06:46:11;;;;;;;19.67;10.63;;;2.10;99.90;;;;;;5012033;28;20199;-76
2022/12/04 06:48:37;;;;;;;24.95;12.65;;;2.10;99.90;;;;;;5010357;28;20273;-76
2022/12/04 06:51:19;;;;;;;19.93;10.60;;;2.10;99.90;;;;;;5010617;28;20224;-76
2022/12/04 06:53:45;;;;;;;20.02;10.85;;;2.10;99.90;;;;;;5011596;28;20425;-76
2022/12/04 06:56:16;;;;;;;15.02;9.70;;;2.10;99.90;;;;;;5011964;28;20618;-76
2022/12/04 06:58:43;;;;;;;14.07;9.38;;;2.10;99.90;;;;;;5011968;28;20563;-76
2022/12/04 07:01:11;;;;;;;15.70;10.80;;;2.10;99.90;;;;;;5011627;28;20293;-75
2022/12/04 07:03:37;;;;;;;18.10;10.50;;;2.20;99.90;;;;;;5011816;28;20188;-76
2022/12/04 07:06:24;;;;;;;16.42;10.10;;;2.10;99.90;;;;;;5011546;28;20191;-76
2022/12/04 07:08:56;;;;;;;19.80;12.40;;;2.10;99.90;;;;;;5011362;28;20207;-76
2022/12/04 07:11:22;;;;;;;17.13;10.52;;;2.10;99.90;;;;;;5011304;28;20276;-76
2022/12/04 07:13:48;;;;;;;17.70;9.60;;;2.10;99.90;;;;;;5011369;28;20605;-76
2022/12/04 07:16:17;;;;;;;16.77;8.95;;;2.10;99.90;;;;;;5011347;28;20190;-76
2022/12/04 07:18:43;;;;;;;18.75;11.57;;;2.10;99.90;;;;;;5011272;28;20202;-75
2022/12/04 07:21:11;;;;;;;19.83;11.43;;;2.00;99.90;;;;;;5011049;28;20191;-75
2022/12/04 07:23:36;;;;;;;17.20;10.10;;;2.00;99.90;;;;;;5011129;28;20637;-75
2022/12/04 07:26:07;;;;;;;17.17;9.50;;;2.00;99.90;;;;;;5011261;28;20212;-76
2022/12/04 07:28:33;;;;;;;19.92;9.90;;;2.00;99.90;;;;;;5009894;28;20954;-76
2022/12/04 07:31:09;;;;;;;16.60;9.73;;;2.00;99.90;;;;;;5010983;28;20679;-76
2022/12/04 07:33:36;;;;;;;16.73;9.80;;;2.00;99.90;;;;;;5011342;28;20226;-76
2022/12/04 07:36:04;;;;;;;16.73;9.30;;;2.10;99.90;;;;;;5011437;28;20281;-76
2022/12/04 07:38:31;;;;;;;18.15;10.00;;;2.10;99.90;;;;;;5009328;28;20424;-75
2022/12/04 07:40:58;;;;;;;17.70;10.20;;;2.10;99.90;;;;;;5009496;28;20190;-75
2022/12/04 07:43:24;;;;;;;22.00;10.77;;;2.10;99.90;;;;;;5010973;28;20582;-76
2022/12/04 07:45:50;;;;;;;18.15;9.90;;;2.10;99.90;;;;;;5009808;28;20192;-76
2022/12/04 07:48:15;;;;;;;15.90;9.87;;;2.10;99.90;;;;;;5011246;28;20902;-76
2022/12/04 07:50:41;;;;;;;18.10;10.50;;;2.00;99.90;;;;;;5010196;28;20187;-76
2022/12/04 07:53:06;;;;;;;22.00;10.57;;;2.10;99.90;;;;;;5012727;28;20211;-76
2022/12/04 07:55:32;;;;;;;21.60;11.20;;;2.10;99.90;;;;;;5011761;28;20233;-76
2022/12/04 07:57:57;;;;;;;19.40;12.17;;;2.10;99.90;;;;;;5010159;28;20198;-76
2022/12/04 08:00:23;;;;;;;20.90;11.90;;;2.10;99.90;;;;;;5011440;28;20535;-76
2022/12/04 08:02:49;;;;;;;20.43;9.73;;;2.20;99.90;;;;;;4993518;28;20233;-76
2022/12/04 08:05:16;;;;;;;18.23;9.70;;;2.20;99.90;;;;;;5011224;28;20186;-76
2022/12/04 08:07:41;;;;;;;18.73;10.32;;;2.20;99.90;;;;;;5010919;28;20218;-75
2022/12/04 08:10:07;;;;;;;18.50;10.03;;;2.20;99.90;;;;;;5010904;28;20182;-76
2022/12/04 08:12:33;;;;;;;26.47;11.63;;;2.20;99.90;;;;;;5010609;28;20206;-76
2022/12/04 08:14:59;;;;;;;21.60;10.83;;;2.20;99.90;;;;;;5011098;28;20413;-76
2022/12/04 08:17:24;;;;;;;20.70;11.07;;;2.20;99.90;;;;;;5010347;28;20199;-76
2022/12/04 08:19:50;;;;;;;20.33;12.50;;;2.20;99.90;;;;;;5008907;28;20188;-77
2022/12/04 08:22:16;;;;;;;22.93;11.87;;;2.20;99.90;;;;;;5010042;28;20287;-77
2022/12/04 08:24:41;;;;;;;20.00;11.77;;;2.20;99.90;;;;;;5009808;28;20276;-76
2022/12/04 08:27:07;;;;;;;30.63;16.20;;;2.20;99.90;;;;;;5009881;28;20190;-76
2022/12/04 08:29:33;;;;;;;26.27;14.30;;;2.30;99.90;;;;;;5009657;28;20225;-77
2022/12/04 08:31:59;;;;;;;41.30;20.73;;;2.30;99.90;;;;;;5008249;28;20541;-77
2022/12/04 08:34:24;;;;;;;72.50;36.03;;;2.40;99.90;;;;;;5009467;28;20181;-76
2022/12/04 08:36:50;;;;;;;59.73;30.47;;;2.40;99.90;;;;;;5008221;28;20753;-76
2022/12/04 08:39:15;;;;;;;39.63;23.70;;;2.50;99.90;;;;;;5009178;28;20194;-77
2022/12/04 08:41:41;;;;;;;21.63;12.90;;;2.50;99.90;;;;;;4991710;28;20217;-77
2022/12/04 08:44:08;;;;;;;23.40;11.07;;;2.50;99.90;;;;;;5008261;28;20191;-77
2022/12/04 08:46:33;;;;;;;19.47;11.70;;;2.50;99.90;;;;;;5008176;28;21015;-76
2022/12/04 08:48:59;;;;;;;20.77;11.20;;;2.50;99.90;;;;;;5008051;28;20478;-76
2022/12/04 08:51:28;;;;;;;18.90;11.20;;;2.50;99.90;;;;;;5009512;28;20207;-77
2022/12/04 08:53:59;;;;;;;18.67;11.15;;;2.50;99.90;;;;;;5009160;28;20180;-76
2022/12/04 08:56:25;;;;;;;20.17;11.57;;;2.40;99.90;;;;;;5009129;28;20192;-76
2022/12/04 08:58:51;;;;;;;21.07;12.10;;;2.50;99.90;;;;;;5007803;28;20427;-77
2022/12/04 09:01:17;;;;;;;20.27;11.70;;;2.50;99.90;;;;;;5008872;28;20423;-77
2022/12/04 09:03:43;;;;;;;19.40;10.47;;;2.50;99.90;;;;;;5009104;28;20542;-76
2022/12/04 09:06:10;;;;;;;18.33;10.47;;;2.50;99.90;;;;;;5007511;28;20275;-76
2022/12/04 09:08:36;;;;;;;18.47;11.13;;;2.50;99.90;;;;;;5007343;28;21080;-77
2022/12/04 09:11:16;;;;;;;25.60;12.50;;;2.50;99.90;;;;;;5009052;28;20446;-76
2022/12/04 09:13:43;;;;;;;24.15;14.85;;;2.50;99.90;;;;;;5008803;28;20464;-76
2022/12/04 09:16:13;;;;;;;21.88;11.90;;;2.50;99.90;;;;;;4990607;28;20198;-77
2022/12/04 09:18:39;;;;;;;22.20;11.98;;;2.50;99.90;;;;;;5007140;28;20299;-77
2022/12/04 09:21:08;;;;;;;24.02;11.73;;;2.50;99.90;;;;;;5009013;28;20660;-76
2022/12/04 09:23:34;;;;;;;21.75;11.48;;;2.50;99.90;;;;;;5008627;28;20239;-77
2022/12/04 09:26:00;;;;;;;22.88;12.63;;;2.50;99.90;;;;;;4990631;28;20194;-77
2022/12/04 09:28:27;;;;;;;22.23;11.25;;;2.50;99.90;;;;;;5008386;28;20213;-76
2022/12/04 09:31:04;;;;;;;24.83;13.05;;;2.60;99.90;;;;;;5007852;28;20805;-76
2022/12/04 09:33:30;;;;;;;24.58;13.05;;;2.60;99.90;;;;;;5007745;28;20218;-77
2022/12/04 09:36:00;;;;;;;25.70;14.40;;;2.60;99.90;;;;;;5006612;28;20178;-76
2022/12/04 09:38:27;;;;;;;26.35;13.38;;;2.60;99.90;;;;;;5006511;28;20197;-76
2022/12/04 09:41:16;;;;;;;25.02;12.50;;;2.50;99.90;;;;;;5007700;28;20182;-75
2022/12/04 09:43:56;;;;;;;24.08;12.63;;;2.50;99.90;;;;;;5007736;28;20182;-76
2022/12/04 09:46:48;;;;;;;21.95;12.38;;;2.50;99.90;;;;;;5007907;28;20257;-76
2022/12/04 09:49:33;;;;;;;22.00;10.88;;;2.50;99.90;;;;;;5001939;28;20224;-76
2022/12/04 09:52:01;;;;;;;30.73;18.38;;;2.50;99.90;;;;;;5008459;28;20214;-75
2022/12/04 09:54:32;;;;;;;30.70;16.02;;;2.50;99.90;;;;;;5012030;28;20186;-76
2022/12/04 09:57:09;;;;;;;22.45;11.98;;;2.50;99.90;;;;;;5012065;28;20671;-75
2022/12/04 09:59:35;;;;;;;22.42;11.65;;;2.50;99.90;;;;;;5012133;28;20830;-75
2022/12/04 10:02:32;;;;;;;25.73;12.70;;;2.40;99.90;;;;;;4994729;28;20231;-76
2022/12/04 10:04:58;;;;;;;20.90;11.48;;;2.50;99.90;;;;;;5013239;28;20194;-76
2022/12/04 10:07:47;;;;;;;24.17;12.03;;;2.50;99.90;;;;;;5012129;28;20201;-77
2022/12/04 10:10:25;;;;;;;25.75;11.20;;;2.60;99.90;;;;;;5011880;28;20211;-76
2022/12/04 10:13:09;;;;;;;21.42;11.02;;;2.60;99.90;;;;;;5012000;28;20209;-76
2022/12/04 10:15:52;;;;;;;30.58;16.00;;;2.60;99.90;;;;;;5011719;28;20211;-76
2022/12/04 10:18:43;;;;;;;48.50;27.05;;;2.60;99.90;;;;;;5011686;28;20200;-76
2022/12/04 10:21:29;;;;;;;31.77;15.98;;;2.70;99.90;;;;;;4987017;28;20200;-76
2022/12/04 10:24:17;;;;;;;44.33;26.20;;;2.70;99.90;;;;;;4990332;28;20201;-76
2022/12/04 10:26:46;;;;;;;41.25;20.20;;;2.70;99.90;;;;;;5011433;28;20179;-79
2022/12/04 10:29:29;;;;;;;29.55;15.02;;;2.60;99.90;;;;;;5011554;28;20324;-77
2022/12/04 10:32:04;;;;;;;31.30;14.70;;;2.60;99.90;;;;;;5010732;28;20201;-79
2022/12/04 10:34:31;;;;;;;50.90;26.20;;;2.80;99.90;;;;;;5011273;28;20234;-79
2022/12/04 10:37:03;;;;;;;43.15;21.13;;;2.60;99.90;;;;;;5011957;28;20187;-77
2022/12/04 10:39:41;;;;;;;30.00;16.05;;;2.60;99.90;;;;;;5012094;28;20196;-78
2022/12/04 10:42:23;;;;;;;30.02;14.52;;;2.60;99.90;;;;;;5010916;28;20205;-78
2022/12/04 10:44:49;;;;;;;35.10;16.75;;;2.60;99.90;;;;;;5011797;28;20182;-77
2022/12/04 10:47:14;;;;;;;34.30;15.73;;;2.50;99.90;;;;;;5010300;28;20265;-78
2022/12/04 10:49:41;;;;;;;33.83;16.50;;;2.60;99.90;;;;;;4994164;28;20598;-77
2022/12/04 10:52:09;;;;;;;30.88;15.30;;;2.60;99.90;;;;;;5010032;28;20231;-77
2022/12/04 10:54:52;;;;;;;34.22;15.95;;;2.70;99.90;;;;;;5011871;28;20668;-78
2022/12/04 10:57:17;;;;;;;51.20;22.50;;;2.60;99.90;;;;;;5011992;28;20165;-78
2022/12/04 10:59:55;;;;;;;33.80;18.53;;;2.60;99.90;;;;;;4993829;28;20437;-78
2022/12/04 11:02:28;;;;;;;34.60;15.65;;;2.60;99.90;;;;;;5009794;28;20211;-78
2022/12/04 11:05:33;;;;;;;32.90;14.77;;;2.70;99.90;;;;;;5010021;28;20743;-77
2022/12/04 11:08:02;;;;;;;35.15;14.60;;;2.70;99.90;;;;;;5009635;28;20649;-78
2022/12/04 11:10:41;;;;;;;29.07;14.23;;;2.70;99.90;;;;;;5010461;28;20610;-79
2022/12/04 11:13:10;;;;;;;32.55;16.67;;;2.70;99.90;;;;;;5010038;28;20454;-79
2022/12/04 11:15:52;;;;;;;38.90;18.98;;;2.70;99.90;;;;;;5009957;28;20282;-79
2022/12/04 11:18:20;;;;;;;26.48;15.65;;;2.60;99.90;;;;;;5009591;28;20296;-78
2022/12/04 11:21:02;;;;;;;29.77;14.20;;;2.60;99.90;;;;;;5009601;28;20210;-78
2022/12/04 11:23:40;;;;;;;43.33;17.33;;;2.60;99.90;;;;;;5009681;28;20175;-79
2022/12/04 11:26:06;;;;;;;24.88;13.48;;;2.60;99.90;;;;;;5009582;28;20283;-78
2022/12/04 11:28:33;;;;;;;27.98;14.50;;;2.60;99.90;;;;;;5009387;28;20357;-79
2022/12/04 11:31:03;;;;;;;29.52;14.20;;;2.60;99.90;;;;;;5011211;28;20687;-77
2022/12/04 11:33:32;;;;;;;24.27;13.23;;;2.70;99.90;;;;;;5013686;28;20281;-79
2022/12/04 11:36:01;;;;;;;29.77;13.87;;;2.80;99.90;;;;;;5015662;28;20335;-79
2022/12/04 11:38:30;;;;;;;25.75;14.20;;;2.80;99.90;;;;;;5012539;28;20437;-77
2022/12/04 11:40:57;;;;;;;28.30;13.83;;;2.90;99.90;;;;;;5010096;28;20196;-79
2022/12/04 11:43:27;;;;;;;27.15;14.80;;;2.90;99.90;;;;;;5012081;28;20440;-78
2022/12/04 11:45:59;;;;;;;40.50;22.93;;;2.90;99.90;;;;;;5014167;28;20301;-77
2022/12/04 11:48:26;;;;;;;27.98;15.25;;;3.00;99.90;;;;;;5011890;28;20542;-79
2022/12/04 11:51:00;;;;;;;26.80;14.30;;;3.00;99.90;;;;;;5014311;28;20209;-78
2022/12/04 11:53:45;;;;;;;27.52;13.50;;;3.00;99.90;;;;;;5011921;28;20429;-78
2022/12/04 11:56:21;;;;;;;27.60;13.05;;;3.00;99.90;;;;;;5016626;28;20179;-78
2022/12/04 11:58:49;;;;;;;30.27;14.30;;;3.00;99.90;;;;;;5015881;28;20206;-77
2022/12/04 12:01:21;;;;;;;24.37;13.60;;;3.00;99.90;;;;;;5033430;28;20447;-77
2022/12/04 12:03:50;;;;;;;33.55;14.75;;;3.00;99.90;;;;;;5031994;28;20585;-79
2022/12/04 12:06:24;;;;;;;24.98;13.93;;;3.00;99.90;;;;;;5032812;28;20185;-77
2022/12/04 12:09:02;;;;;;;35.67;16.17;;;3.10;99.90;;;;;;5031736;28;20214;-78
2022/12/04 12:11:38;;;;;;;36.20;14.98;;;3.00;99.90;;;;;;5021391;28;20203;-77
2022/12/04 12:14:40;;;;;;;29.87;15.63;;;3.00;99.90;;;;;;5009546;28;20172;-77
2022/12/04 12:17:38;;;;;;;29.77;15.52;;;3.00;99.90;;;;;;4986647;28;20426;-78
2022/12/04 12:20:31;;;;;;;25.88;13.98;;;3.10;99.90;;;;;;5010203;28;20744;-77
2022/12/04 12:23:25;;;;;;;29.02;15.35;;;3.10;99.90;;;;;;5008453;28;20220;-78
2022/12/04 12:26:10;;;;;;;25.97;14.37;;;3.20;99.90;;;;;;5010082;28;20173;-77
2022/12/04 12:29:11;;;;;;;27.88;15.48;;;3.10;99.90;;;;;;5009857;28;20575;-78
2022/12/04 12:31:42;;;;;;;29.45;14.52;;;3.10;99.90;;;;;;4994013;28;20587;-79
2022/12/04 12:34:34;;;;;;;24.92;13.50;;;3.10;99.90;;;;;;5010225;28;20185;-78
2022/12/04 12:37:08;;;;;;;31.83;15.97;;;3.10;99.90;;;;;;5009824;28;20182;-77
2022/12/04 12:39:49;;;;;;;28.20;14.90;;;3.10;99.90;;;;;;5010037;28;20493;-77
2022/12/04 12:42:49;;;;;;;29.00;16.85;;;3.00;99.90;;;;;;5010101;28;20210;-78
2022/12/04 12:45:38;;;;;;;26.27;13.40;;;3.00;99.90;;;;;;5009805;28;20638;-78
2022/12/04 12:48:21;;;;;;;28.73;14.77;;;2.90;99.90;;;;;;5008520;28;20225;-79
2022/12/04 12:50:52;;;;;;;28.05;14.45;;;2.90;99.90;;;;;;5008609;28;20553;-79
2022/12/04 12:53:24;;;;;;;26.90;14.05;;;2.80;99.90;;;;;;4992074;28;20218;-78
2022/12/04 12:55:53;;;;;;;29.35;14.98;;;2.80;99.90;;;;;;4992334;28;20173;-79
2022/12/04 12:58:28;;;;;;;28.52;14.45;;;2.80;99.90;;;;;;4992188;28;20742;-77
2022/12/04 13:01:38;;;;;;;26.97;13.33;;;2.90;99.90;;;;;;5007997;28;20644;-77
2022/12/04 13:04:33;;;;;;;33.33;13.68;;;2.90;99.90;;;;;;4986581;28;20941;-78
2022/12/04 13:07:32;;;;;;;33.00;15.17;;;2.90;99.90;;;;;;5009652;28;20187;-77
2022/12/04 13:10:41;;;;;;;27.48;14.80;;;2.90;99.90;;;;;;5007450;28;20449;-78
2022/12/04 13:13:28;;;;;;;28.63;15.88;;;2.90;99.90;;;;;;4951022;28;20295;-78
2022/12/04 13:16:32;;;;;;;34.75;16.90;;;3.10;99.90;;;;;;5007786;28;20349;-80
2022/12/04 13:19:09;;;;;;;32.00;17.45;;;3.00;99.90;;;;;;5007803;28;20202;-76